createdAt,value
2022-08-22T00:02:20.414Z,99.90
2022-08-22T00:02:52.898Z,99.90
2022-08-22T00:03:02.035Z,99.90
2022-08-22T00:04:54.619Z,99.90
2022-08-22T00:07:31.029Z,99.90
2022-08-22T00:10:06.683Z,99.90
2022-08-22T00:12:40.418Z,99.90
2022-08-22T00:15:41.982Z,99.90
2022-08-22T00:18:08.728Z,99.90
2022-08-22T00:20:42.419Z,99.90
2022-08-22T00:23:17.478Z,99.90
2022-08-22T00:25:54.148Z,99.90
2022-08-22T00:28:26.113Z,99.90
2022-08-22T00:30:59.800Z,99.90
2022-08-22T00:33:38.535Z,99.90
2022-08-22T00:36:20.393Z,99.90
2022-08-22T00:38:54.437Z,99.90
2022-08-22T00:41:44.182Z,99.90
2022-08-22T00:44:45.609Z,99.90
2022-08-22T00:47:34.002Z,99.90
2022-08-22T00:50:24.932Z,99.90
2022-08-22T00:53:18.529Z,99.90
2022-08-22T00:55:59.178Z,99.90
2022-08-22T00:58:55.960Z,99.90
2022-08-22T01:01:32.619Z,99.90
2022-08-22T01:04:35.401Z,99.90
2022-08-22T01:07:17.914Z,99.90
2022-08-22T01:10:00.172Z,99.90
2022-08-22T01:12:43.359Z,99.90
2022-08-22T01:15:13.265Z,99.90
2022-08-22T01:18:18.777Z,99.90
2022-08-22T01:21:17.343Z,99.90
2022-08-22T01:24:14.520Z,99.90
2022-08-22T01:27:24.880Z,99.90
2022-08-22T01:30:16.389Z,99.90
2022-08-22T01:33:27.435Z,99.90
2022-08-22T01:36:17.122Z,99.90
2022-08-22T01:39:16.026Z,99.90
2022-08-22T01:42:36.688Z,99.90
2022-08-22T01:45:31.057Z,99.90
2022-08-22T01:48:07.037Z,99.90
2022-08-22T01:50:38.982Z,99.90
2022-08-22T01:53:14.439Z,99.90
2022-08-22T01:55:52.928Z,99.90
2022-08-22T01:58:24.437Z,99.90
2022-08-22T02:01:03.700Z,99.90
2022-08-22T02:03:36.357Z,99.90
2022-08-22T02:06:09.784Z,99.90
2022-08-22T02:08:52.652Z,99.90
2022-08-22T02:11:51.958Z,99.90
2022-08-22T02:14:30.609Z,99.90
2022-08-22T02:17:11.172Z,99.90
2022-08-22T02:19:48.060Z,99.90
2022-08-22T02:22:29.305Z,99.90
2022-08-22T02:25:09.761Z,99.90
2022-08-22T02:27:46.763Z,99.90
2022-08-22T02:30:18.537Z,99.90
2022-08-22T02:33:04.465Z,99.90
2022-08-22T02:35:38.086Z,99.90
2022-08-22T02:38:15.994Z,99.90
2022-08-22T02:40:52.718Z,99.90
2022-08-22T02:43:25.048Z,99.90
2022-08-22T02:46:00.485Z,99.90
2022-08-22T02:48:37.197Z,99.90
2022-08-22T02:51:13.862Z,99.90
2022-08-22T02:53:50.725Z,99.90
2022-08-22T02:56:24.325Z,99.90
2022-08-22T02:58:59.302Z,99.90
2022-08-22T03:01:40.836Z,99.90
2022-08-22T03:04:46.453Z,99.90
2022-08-22T03:07:24.135Z,99.90
2022-08-22T03:10:11.987Z,99.90
2022-08-22T03:12:48.929Z,99.90
2022-08-22T03:15:24.495Z,99.90
2022-08-22T03:17:57.214Z,99.90
2022-08-22T03:20:43.763Z,99.90
2022-08-22T03:23:21.813Z,99.90
2022-08-22T03:25:59.873Z,99.90
2022-08-22T03:28:36.784Z,99.90
2022-08-22T03:31:14.065Z,99.90
2022-08-22T03:33:43.496Z,99.90
2022-08-22T03:36:26.998Z,99.90
2022-08-22T03:39:17.259Z,99.90
2022-08-22T03:42:10.217Z,99.90
2022-08-22T03:45:12.773Z,99.90
2022-08-22T03:48:18.748Z,99.90
2022-08-22T03:51:30.520Z,99.90
2022-08-22T03:54:35.493Z,99.90
2022-08-22T03:57:46.168Z,99.90
2022-08-22T04:00:39.819Z,99.90
2022-08-22T04:03:32.207Z,99.90
2022-08-22T04:06:21.859Z,99.90
2022-08-22T04:09:25.809Z,99.90
2022-08-22T04:12:18.484Z,99.90
2022-08-22T04:15:14.269Z,99.90
2022-08-22T04:18:02.852Z,99.90
2022-08-22T04:21:10.733Z,99.90
2022-08-22T04:24:02.618Z,99.90
2022-08-22T04:26:38.705Z,99.90
2022-08-22T04:29:15.028Z,99.90
2022-08-22T04:31:48.135Z,99.90
2022-08-22T04:34:23.435Z,99.90
2022-08-22T04:36:56.796Z,99.90
2022-08-22T04:39:31.152Z,99.90
2022-08-22T04:42:29.045Z,99.90
2022-08-22T04:45:01.835Z,99.90
2022-08-22T04:47:34.696Z,99.90
2022-08-22T04:50:11.209Z,99.90
2022-08-22T04:52:54.198Z,99.90
2022-08-22T04:55:32.669Z,99.90
2022-08-22T04:58:10.729Z,99.90
2022-08-22T05:00:45.853Z,99.90
2022-08-22T05:03:17.581Z,99.90
2022-08-22T05:05:50.484Z,99.90
2022-08-22T05:08:26.865Z,99.90
2022-08-22T05:10:55.677Z,99.90
2022-08-22T05:13:29.577Z,99.90
2022-08-22T05:16:03.070Z,99.90
2022-08-22T05:18:36.616Z,99.90
2022-08-22T05:21:09.189Z,99.90
2022-08-22T05:23:43.187Z,99.90
2022-08-22T05:26:14.302Z,99.90
2022-08-22T05:28:50.177Z,99.90
2022-08-22T05:31:26.289Z,99.90
2022-08-22T05:33:57.669Z,99.90
2022-08-22T05:36:30.081Z,99.90
2022-08-22T05:39:01.385Z,99.90
2022-08-22T05:41:33.854Z,99.90
2022-08-22T05:44:03.162Z,99.90
2022-08-22T05:46:41.388Z,99.90
2022-08-22T05:49:19.029Z,99.90
2022-08-22T05:52:02.048Z,99.90
2022-08-22T05:54:34.813Z,99.90
2022-08-22T05:57:15.259Z,99.90
2022-08-22T05:59:45.725Z,99.90
2022-08-22T06:02:19.736Z,99.90
2022-08-22T06:04:51.974Z,99.90
2022-08-22T06:07:26.847Z,99.90
2022-08-22T06:10:17.610Z,99.90
2022-08-22T06:12:53.188Z,99.90
2022-08-22T06:15:24.734Z,99.90
2022-08-22T06:17:57.711Z,99.90
2022-08-22T06:20:29.291Z,99.90
2022-08-22T06:23:01.728Z,99.90
2022-08-22T06:25:33.308Z,99.90
2022-08-22T06:28:05.204Z,99.90
2022-08-22T06:30:35.103Z,97.00
2022-08-22T06:33:12.336Z,94.30
2022-08-22T06:36:02.049Z,92.80
2022-08-22T06:38:33.807Z,92.90
2022-08-22T06:41:04.027Z,91.10
2022-08-22T06:43:38.366Z,90.70
2022-08-22T06:46:07.660Z,87.10
2022-08-22T06:48:37.205Z,84.80
2022-08-22T06:51:08.265Z,82.50
2022-08-22T06:53:47.775Z,80.20
2022-08-22T06:56:21.966Z,78.60
2022-08-22T06:58:53.441Z,76.30
2022-08-22T07:01:24.718Z,73.70
2022-08-22T07:03:55.716Z,77.10
2022-08-22T07:06:30.728Z,79.00
2022-08-22T07:09:00.240Z,82.70
2022-08-22T07:11:38.981Z,85.20
2022-08-22T07:14:11.152Z,86.50
2022-08-22T07:16:44.766Z,87.90
2022-08-22T07:19:24.980Z,88.20
2022-08-22T07:21:53.102Z,87.30
2022-08-22T07:24:26.512Z,88.80
2022-08-22T07:27:08.940Z,87.50
2022-08-22T07:29:45.849Z,82.60
2022-08-22T07:32:19.595Z,79.10
2022-08-22T07:35:05.501Z,72.20
2022-08-22T07:37:58.374Z,71.60
2022-08-22T07:40:32.731Z,66.60
2022-08-22T07:43:05.915Z,62.50
2022-08-22T07:45:38.218Z,62.50
2022-08-22T07:48:25.438Z,64.80
2022-08-22T07:51:08.208Z,66.00
2022-08-22T07:53:41.563Z,62.70
2022-08-22T07:56:16.863Z,60.30
2022-08-22T07:58:47.553Z,57.60
2022-08-22T08:01:20.136Z,57.00
2022-08-22T08:03:53.488Z,56.10
2022-08-22T08:06:23.246Z,55.30
2022-08-22T08:08:53.037Z,54.30
2022-08-22T08:11:25.123Z,52.40
2022-08-22T08:13:57.856Z,52.40
2022-08-22T08:16:29.570Z,54.00
2022-08-22T08:19:00.977Z,51.40
2022-08-22T08:21:32.826Z,51.00
2022-08-22T08:24:02.675Z,51.00
2022-08-22T08:26:36.640Z,52.00
2022-08-22T08:29:04.765Z,51.20
2022-08-22T08:31:38.071Z,50.20
2022-08-22T08:34:16.161Z,50.50
2022-08-22T08:36:51.552Z,47.10
2022-08-22T08:39:25.141Z,45.30
2022-08-22T08:42:20.971Z,44.60
2022-08-22T08:45:26.127Z,43.30
2022-08-22T08:48:18.704Z,42.20
2022-08-22T08:51:05.088Z,43.70
2022-08-22T08:54:03.768Z,43.40
2022-08-22T08:56:39.732Z,43.90
2022-08-22T08:59:27.023Z,42.10
2022-08-22T09:05:37.824Z,42.50
2022-08-22T09:08:39.034Z,41.50
2022-08-22T09:11:38.927Z,40.80
2022-08-22T09:14:23.736Z,42.10
2022-08-22T09:17:47.535Z,40.60
2022-08-22T09:20:48.156Z,39.80
2022-08-22T09:23:53.283Z,40.20
2022-08-22T09:26:29.188Z,39.80
2022-08-22T09:29:01.287Z,40.30
2022-08-22T09:31:47.725Z,41.50
2022-08-22T09:34:26.653Z,42.00
2022-08-22T09:37:13.961Z,39.70
2022-08-22T09:39:52.885Z,40.40
2022-08-22T09:40:15.325Z,40.20
2022-08-22T09:42:31.109Z,40.50
2022-08-22T09:45:24.069Z,39.70
2022-08-22T09:48:06.946Z,41.70
2022-08-22T09:50:48.109Z,40.40
2022-08-22T09:53:43.441Z,38.70
2022-08-22T09:56:23.439Z,37.50
2022-08-22T09:59:03.241Z,36.50
2022-08-22T10:01:40.082Z,35.30
2022-08-22T10:04:42.439Z,34.40
2022-08-22T10:07:27.345Z,35.80
2022-08-22T10:10:03.653Z,36.20
2022-08-22T10:12:37.248Z,36.30
2022-08-22T10:15:16.965Z,36.20
2022-08-22T10:17:58.922Z,34.80
2022-08-22T10:20:34.676Z,34.10
2022-08-22T10:23:21.090Z,35.50
2022-08-22T10:25:53.290Z,36.20
2022-08-22T10:28:34.198Z,36.90
2022-08-22T10:31:17.434Z,36.20
2022-08-22T10:33:55.382Z,37.00
2022-08-22T10:36:33.141Z,35.70
2022-08-22T10:39:09.516Z,36.70
2022-08-22T10:42:04.413Z,37.90
2022-08-22T10:44:40.168Z,34.70
2022-08-22T10:47:15.361Z,36.20
2022-08-22T10:49:51.526Z,36.10
2022-08-22T10:52:24.982Z,37.40
2022-08-22T10:54:56.584Z,37.10
2022-08-22T10:57:58.125Z,37.10
2022-08-22T11:00:46.043Z,38.00
2022-08-22T11:03:24.858Z,36.00
2022-08-22T11:05:56.364Z,36.70
2022-08-22T11:08:54.342Z,37.10
2022-08-22T11:11:37.777Z,38.10
2022-08-22T11:14:38.067Z,36.40
2022-08-22T11:17:30.265Z,36.40
2022-08-22T11:20:14.022Z,38.00
2022-08-22T11:22:48.594Z,39.20
2022-08-22T11:25:38.849Z,42.80
2022-08-22T11:28:31.602Z,41.30
2022-08-22T11:31:07.535Z,38.80
2022-08-22T11:33:46.402Z,37.90
2022-08-22T11:36:36.617Z,38.20
2022-08-22T11:39:18.668Z,38.40
2022-08-22T11:42:02.624Z,41.50
2022-08-22T11:44:35.391Z,44.10
2022-08-22T11:47:27.152Z,45.90
2022-08-22T11:50:01.279Z,43.00
2022-08-22T11:52:43.780Z,42.30
2022-08-22T11:55:33.009Z,40.60
2022-08-22T11:58:20.850Z,39.10
2022-08-22T12:00:55.028Z,40.70
2022-08-22T12:03:35.541Z,42.80
2022-08-22T12:06:09.615Z,46.70
2022-08-22T12:09:10.315Z,48.60
2022-08-22T12:11:48.674Z,49.60
2022-08-22T12:14:27.686Z,50.40
2022-08-22T12:17:41.584Z,51.10
2022-08-22T12:20:16.873Z,51.70
2022-08-22T12:23:15.175Z,52.50
2022-08-22T12:25:54.489Z,53.90
2022-08-22T12:28:31.789Z,53.00
2022-08-22T12:31:13.102Z,53.10
2022-08-22T12:33:56.937Z,55.10
2022-08-22T12:36:48.915Z,56.80
2022-08-22T12:39:45.853Z,56.70
2022-08-22T12:42:51.975Z,53.70
2022-08-22T12:45:40.744Z,55.50
2022-08-22T12:48:38.406Z,56.90
2022-08-22T12:51:27.834Z,55.80
2022-08-22T12:54:36.656Z,55.30
2022-08-22T12:57:23.474Z,56.60
2022-08-22T12:59:58.243Z,56.90
2022-08-22T13:02:29.756Z,55.90
2022-08-22T13:05:13.684Z,53.90
2022-08-22T13:07:54.528Z,53.60
2022-08-22T13:10:36.543Z,54.60
2022-08-22T13:13:12.265Z,52.20
2022-08-22T13:15:46.105Z,53.50
2022-08-22T13:18:30.315Z,53.70
2022-08-22T13:21:05.143Z,58.00
2022-08-22T13:23:39.800Z,55.50
2022-08-22T13:26:16.426Z,56.60
2022-08-22T13:29:24.538Z,57.40
2022-08-22T13:31:55.329Z,56.10
2022-08-22T13:34:40.572Z,57.50
2022-08-22T13:37:17.218Z,57.00
2022-08-22T13:39:51.001Z,56.70
2022-08-22T13:42:29.763Z,59.10
2022-08-22T13:45:05.321Z,56.90
2022-08-22T13:47:39.250Z,55.10
2022-08-22T13:50:13.931Z,54.90
2022-08-22T13:52:52.193Z,57.70
2022-08-22T13:55:29.492Z,57.30
2022-08-22T13:58:03.021Z,58.30
2022-08-22T14:01:04.694Z,57.90
2022-08-22T14:03:40.007Z,56.30
2022-08-22T14:06:35.550Z,56.30
2022-08-22T14:09:15.336Z,57.60
2022-08-22T14:11:49.493Z,58.10
2022-08-22T14:14:25.585Z,59.10
2022-08-22T14:16:56.161Z,62.30
2022-08-22T14:19:29.981Z,59.70
2022-08-22T14:22:01.807Z,58.10
2022-08-22T14:24:45.339Z,58.70
2022-08-22T14:27:16.645Z,60.30
2022-08-22T14:29:50.397Z,60.90
2022-08-22T14:32:41.837Z,59.10
2022-08-22T14:35:25.423Z,60.60
2022-08-22T14:38:17.486Z,58.70
2022-08-22T14:40:52.912Z,58.00
2022-08-22T14:43:40.341Z,61.30
2022-08-22T14:46:14.246Z,59.60
2022-08-22T14:48:47.557Z,57.00
2022-08-22T14:51:22.245Z,57.10
2022-08-22T14:53:51.351Z,56.50
2022-08-22T14:56:24.545Z,56.60
2022-08-22T14:59:02.064Z,59.20
2022-08-22T15:01:33.836Z,60.50
2022-08-22T15:04:05.636Z,58.80
2022-08-22T15:06:37.106Z,59.90
2022-08-22T15:09:08.990Z,60.10
2022-08-22T15:11:42.265Z,59.70
2022-08-22T15:14:15.991Z,58.50
2022-08-22T15:16:53.550Z,59.20
2022-08-22T15:19:27.410Z,60.20
2022-08-22T15:22:11.349Z,61.00
2022-08-22T15:24:44.594Z,63.10
2022-08-22T15:27:17.843Z,63.60
2022-08-22T15:29:49.998Z,63.50
2022-08-22T15:32:22.841Z,62.70
2022-08-22T15:35:03.377Z,61.90
2022-08-22T15:37:34.348Z,62.40
2022-08-22T15:40:13.020Z,64.90
2022-08-22T15:42:46.225Z,65.00
2022-08-22T15:45:34.809Z,64.50
2022-08-22T15:48:09.066Z,65.00
2022-08-22T15:50:41.928Z,63.50
2022-08-22T15:53:18.887Z,64.80
2022-08-22T15:56:28.862Z,64.30
2022-08-22T15:59:33.912Z,65.80
2022-08-22T16:02:33.282Z,66.50
2022-08-22T16:05:22.984Z,67.40
2022-08-22T16:08:00.160Z,67.40
2022-08-22T16:10:35.701Z,66.10
2022-08-22T16:13:39.355Z,66.90
2022-08-22T16:16:13.030Z,67.10
2022-08-22T16:19:20.315Z,67.40
2022-08-22T16:22:10.623Z,66.30
2022-08-22T16:25:11.925Z,67.10
2022-08-22T16:27:58.582Z,69.10
2022-08-22T16:30:36.501Z,67.90
2022-08-22T16:33:18.476Z,68.30
2022-08-22T16:36:25.597Z,68.30
2022-08-22T16:38:57.070Z,68.70
2022-08-22T16:41:40.399Z,69.10
2022-08-22T16:44:38.392Z,69.60
2022-08-22T16:47:13.802Z,69.20
2022-08-22T16:50:01.545Z,69.40
2022-08-22T16:53:04.264Z,68.60
2022-08-22T16:55:42.961Z,68.90
2022-08-22T16:58:22.447Z,68.70
2022-08-22T17:00:57.932Z,69.00
2022-08-22T17:03:38.122Z,69.40
2022-08-22T17:06:26.458Z,69.10
2022-08-22T17:09:04.109Z,68.40
2022-08-22T17:11:41.847Z,68.50
2022-08-22T17:14:21.490Z,68.40
2022-08-22T17:17:09.528Z,68.70
2022-08-22T17:19:46.737Z,67.90
2022-08-22T17:22:29.189Z,68.30
2022-08-22T17:25:11.261Z,68.20
2022-08-22T17:27:41.834Z,68.50
2022-08-22T17:30:14.490Z,68.40
2022-08-22T17:33:00.229Z,68.60
2022-08-22T17:35:43.537Z,68.50
2022-08-22T17:38:22.321Z,69.00
2022-08-22T17:41:00.982Z,69.30
2022-08-22T17:43:49.362Z,69.60
2022-08-22T17:46:28.312Z,69.90
2022-08-22T17:49:03.202Z,70.40
2022-08-22T17:51:34.186Z,70.40
2022-08-22T17:54:14.184Z,71.20
2022-08-22T17:56:45.861Z,71.40
2022-08-22T17:59:21.173Z,71.90
2022-08-22T18:01:54.195Z,72.60
2022-08-22T18:04:29.947Z,73.20
2022-08-22T18:07:05.756Z,73.50
2022-08-22T18:09:40.615Z,74.20
2022-08-22T18:12:18.518Z,74.60
2022-08-22T18:14:51.238Z,75.00
2022-08-22T18:17:22.512Z,75.80
2022-08-22T18:19:59.238Z,76.00
2022-08-22T18:22:31.606Z,76.70
2022-08-22T18:25:08.435Z,77.20
2022-08-22T18:27:41.145Z,77.60
2022-08-22T18:30:19.878Z,78.10
2022-08-22T18:32:59.470Z,78.90
2022-08-22T18:35:32.477Z,80.40
2022-08-22T18:38:19.821Z,79.90
2022-08-22T18:40:55.684Z,80.60
2022-08-22T18:43:36.329Z,81.00
2022-08-22T18:46:21.098Z,81.60
2022-08-22T18:49:13.669Z,82.20
2022-08-22T18:51:38.698Z,83.20
2022-08-22T18:54:30.088Z,83.50
2022-08-22T18:57:06.964Z,84.10
2022-08-22T18:59:50.264Z,85.10
2022-08-22T19:02:41.802Z,85.40
2022-08-22T19:05:48.284Z,86.40
2022-08-22T19:08:43.590Z,87.20
2022-08-22T19:11:23.015Z,88.50
2022-08-22T19:14:12.027Z,89.80
2022-08-22T19:16:59.777Z,90.00
2022-08-22T19:20:04.020Z,90.30
2022-08-22T19:22:34.145Z,91.00
2022-08-22T19:25:26.396Z,91.50
2022-08-22T19:28:22.583Z,92.30
2022-08-22T19:30:53.473Z,93.10
2022-08-22T19:33:34.567Z,93.60
2022-08-22T19:36:10.165Z,94.60
2022-08-22T19:39:02.774Z,95.00
2022-08-22T19:41:53.332Z,95.70
2022-08-22T19:44:42.112Z,96.20
2022-08-22T19:47:31.429Z,96.70
2022-08-22T19:50:05.633Z,97.90
2022-08-22T19:52:47.574Z,99.20
2022-08-22T19:55:22.685Z,99.90
2022-08-22T19:57:58.661Z,99.90
2022-08-22T20:00:49.263Z,99.90
2022-08-22T20:03:31.081Z,99.90
2022-08-22T20:06:13.780Z,99.90
2022-08-22T20:09:02.961Z,99.90
2022-08-22T20:11:42.760Z,99.90
2022-08-22T20:14:13.433Z,99.90
2022-08-22T20:17:10.368Z,99.90
2022-08-22T20:22:52.920Z,99.90
2022-08-22T20:25:42.775Z,99.90
2022-08-22T20:28:32.045Z,99.90
2022-08-22T20:31:02.205Z,99.90
2022-08-22T20:33:37.153Z,99.90
2022-08-22T20:36:24.254Z,99.90
2022-08-22T20:39:00.910Z,99.90
2022-08-22T20:41:33.478Z,99.90
2022-08-22T20:44:06.271Z,99.90
2022-08-22T20:46:53.361Z,99.90
2022-08-22T20:49:28.407Z,99.90
2022-08-22T20:51:59.883Z,99.90
2022-08-22T20:54:30.452Z,99.90
2022-08-22T20:57:01.852Z,99.90
2022-08-22T20:59:35.667Z,99.90
2022-08-22T21:02:10.981Z,99.90
2022-08-22T21:04:48.960Z,99.90
2022-08-22T21:07:25.687Z,99.90
2022-08-22T21:10:21.721Z,99.90
2022-08-22T21:13:06.378Z,99.90
2022-08-22T21:15:35.169Z,99.90
2022-08-22T21:18:03.076Z,99.90
2022-08-22T21:20:34.780Z,99.90
2022-08-22T21:23:06.507Z,99.90
2022-08-22T21:25:51.296Z,99.90
2022-08-22T21:28:35.517Z,99.90
2022-08-22T21:31:11.874Z,99.90
2022-08-22T21:33:44.846Z,99.90
2022-08-22T21:36:15.295Z,99.90
2022-08-22T21:38:51.365Z,99.90
2022-08-22T21:41:27.208Z,99.90
2022-08-22T21:43:55.225Z,99.90
2022-08-22T21:46:28.948Z,99.90
2022-08-22T21:49:01.123Z,99.90
2022-08-22T21:51:32.755Z,99.90
2022-08-22T21:54:29.640Z,99.90
2022-08-22T21:56:59.791Z,99.90
2022-08-22T21:59:49.321Z,99.90
2022-08-22T22:02:31.513Z,99.90
2022-08-22T22:05:08.089Z,99.90
2022-08-22T22:07:37.685Z,99.90
2022-08-22T22:10:09.331Z,99.90
2022-08-22T22:12:40.201Z,99.90
2022-08-22T22:15:10.299Z,99.90
2022-08-22T22:17:38.195Z,99.90
2022-08-22T22:20:06.952Z,99.90
2022-08-22T22:22:36.887Z,99.90
2022-08-22T22:25:07.027Z,99.90
2022-08-22T22:27:55.112Z,99.90
2022-08-22T22:30:26.312Z,99.90
2022-08-22T22:32:54.311Z,99.90
2022-08-22T22:35:22.723Z,99.90
2022-08-22T22:37:50.606Z,99.90
2022-08-22T22:40:20.148Z,99.90
2022-08-22T22:42:48.087Z,99.90
2022-08-22T22:45:15.967Z,99.90
2022-08-22T22:47:43.834Z,99.90
2022-08-22T22:50:11.757Z,99.90
2022-08-22T22:52:40.658Z,99.90
2022-08-22T22:55:10.135Z,99.90
2022-08-22T22:57:42.385Z,99.90
2022-08-22T23:00:12.625Z,99.90
2022-08-22T23:02:41.277Z,99.90
2022-08-22T23:05:10.981Z,99.90
2022-08-22T23:07:39.621Z,99.90
2022-08-22T23:10:09.730Z,99.90
2022-08-22T23:12:39.865Z,99.90
2022-08-22T23:15:08.635Z,99.90
2022-08-22T23:17:36.582Z,99.90
2022-08-22T23:20:05.765Z,99.90
2022-08-22T23:22:34.016Z,99.90
2022-08-22T23:25:01.940Z,99.90
2022-08-22T23:27:31.416Z,99.90
2022-08-22T23:30:02.142Z,99.90
2022-08-22T23:32:30.111Z,99.90
2022-08-22T23:34:58.159Z,99.90
2022-08-22T23:37:26.087Z,99.90
2022-08-22T23:39:53.995Z,99.90
2022-08-22T23:42:22.016Z,99.90
2022-08-22T23:44:49.877Z,99.90
2022-08-22T23:47:19.098Z,99.90
2022-08-22T23:49:46.982Z,99.90
2022-08-22T23:52:15.480Z,99.90
2022-08-22T23:54:43.431Z,99.90
2022-08-22T23:57:12.713Z,99.90
2022-08-22T23:59:47.849Z,99.90
